sensor_id;sensor_type;location;lat;lon;timestamp;P1;durP1;ratioP1;P2;durP2;ratioP2
33094;SDS011;19459;53.044;8.910;2022-10-17T00:02:03;8.95;;;3.50;;
33094;SDS011;19459;53.044;8.910;2022-10-17T00:04:29;8.13;;;3.38;;
33094;SDS011;19459;53.044;8.910;2022-10-17T00:06:54;10.57;;;3.22;;
33094;SDS011;19459;53.044;8.910;2022-10-17T00:09:20;9.27;;;3.30;;
33094;SDS011;19459;53.044;8.910;2022-10-17T00:11:46;8.40;;;3.95;;
33094;SDS011;19459;53.044;8.910;2022-10-17T00:14:11;13.07;;;4.25;;
33094;SDS011;19459;53.044;8.910;2022-10-17T00:16:37;7.40;;;3.53;;
33094;SDS011;19459;53.044;8.910;2022-10-17T00:19:04;12.68;;;3.90;;
33094;SDS011;19459;53.044;8.910;2022-10-17T00:21:31;15.57;;;4.20;;
33094;SDS011;19459;53.044;8.910;2022-10-17T00:23:57;7.30;;;3.65;;
33094;SDS011;19459;53.044;8.910;2022-10-17T00:26:25;8.85;;;3.60;;
33094;SDS011;19459;53.044;8.910;2022-10-17T00:28:53;5.88;;;4.35;;
33094;SDS011;19459;53.044;8.910;2022-10-17T00:31:20;8.60;;;3.72;;
33094;SDS011;19459;53.044;8.910;2022-10-17T00:33:47;9.13;;;4.00;;
33094;SDS011;19459;53.044;8.910;2022-10-17T00:36:14;6.15;;;3.63;;
33094;SDS011;19459;53.044;8.910;2022-10-17T00:38:47;10.05;;;4.70;;
33094;SDS011;19459;53.044;8.910;2022-10-17T00:41:20;8.40;;;3.70;;
33094;SDS011;19459;53.044;8.910;2022-10-17T00:44:00;11.82;;;3.78;;
33094;SDS011;19459;53.044;8.910;2022-10-17T00:46:33;6.15;;;3.30;;
33094;SDS011;19459;53.044;8.910;2022-10-17T00:49:04;13.13;;;4.03;;
33094;SDS011;19459;53.044;8.910;2022-10-17T00:51:44;3.70;;;3.33;;
33094;SDS011;19459;53.044;8.910;2022-10-17T00:54:24;8.15;;;3.42;;
33094;SDS011;19459;53.044;8.910;2022-10-17T00:56:55;6.05;;;3.38;;
33094;SDS011;19459;53.044;8.910;2022-10-17T00:59:22;6.68;;;3.30;;
33094;SDS011;19459;53.044;8.910;2022-10-17T01:01:56;6.93;;;3.58;;
33094;SDS011;19459;53.044;8.910;2022-10-17T01:04:28;12.38;;;3.45;;
33094;SDS011;19459;53.044;8.910;2022-10-17T01:06:53;10.20;;;3.40;;
33094;SDS011;19459;53.044;8.910;2022-10-17T01:09:19;12.63;;;4.28;;
33094;SDS011;19459;53.044;8.910;2022-10-17T01:11:51;3.97;;;3.03;;
33094;SDS011;19459;53.044;8.910;2022-10-17T01:28:31;5.40;;;3.80;;
33094;SDS011;19459;53.044;8.910;2022-10-17T01:31:24;9.43;;;4.05;;
33094;SDS011;19459;53.044;8.910;2022-10-17T01:34:03;6.45;;;3.60;;
33094;SDS011;19459;53.044;8.910;2022-10-17T01:36:53;6.60;;;3.63;;
33094;SDS011;19459;53.044;8.910;2022-10-17T01:39:59;4.80;;;3.33;;
33094;SDS011;19459;53.044;8.910;2022-10-17T01:42:36;3.88;;;3.05;;
33094;SDS011;19459;53.044;8.910;2022-10-17T01:48:08;7.55;;;3.50;;
33094;SDS011;19459;53.044;8.910;2022-10-17T01:50:45;5.00;;;3.65;;
33094;SDS011;19459;53.044;8.910;2022-10-17T01:53:24;6.32;;;4.28;;
33094;SDS011;19459;53.044;8.910;2022-10-17T01:56:02;9.23;;;4.07;;
33094;SDS011;19459;53.044;8.910;2022-10-17T01:58:37;7.53;;;3.53;;
33094;SDS011;19459;53.044;8.910;2022-10-17T02:01:31;10.32;;;4.30;;
33094;SDS011;19459;53.044;8.910;2022-10-17T02:03:59;11.75;;;4.68;;
33094;SDS011;19459;53.044;8.910;2022-10-17T02:06:26;7.85;;;4.28;;
33094;SDS011;19459;53.044;8.910;2022-10-17T02:08:52;8.07;;;5.18;;
33094;SDS011;19459;53.044;8.910;2022-10-17T02:11:19;6.93;;;3.80;;
33094;SDS011;19459;53.044;8.910;2022-10-17T02:17:18;7.72;;;4.55;;
33094;SDS011;19459;53.044;8.910;2022-10-17T02:33:53;8.90;;;5.32;;
33094;SDS011;19459;53.044;8.910;2022-10-17T02:36:25;8.00;;;5.90;;
33094;SDS011;19459;53.044;8.910;2022-10-17T02:38:58;7.35;;;5.45;;
33094;SDS011;19459;53.044;8.910;2022-10-17T02:41:27;11.27;;;6.50;;
33094;SDS011;19459;53.044;8.910;2022-10-17T02:43:55;9.77;;;5.82;;
33094;SDS011;19459;53.044;8.910;2022-10-17T02:46:22;9.05;;;6.20;;
33094;SDS011;19459;53.044;8.910;2022-10-17T02:51:28;6.65;;;5.57;;
33094;SDS011;19459;53.044;8.910;2022-10-17T02:56:48;9.80;;;6.25;;
33094;SDS011;19459;53.044;8.910;2022-10-17T02:59:19;9.88;;;6.60;;
33094;SDS011;19459;53.044;8.910;2022-10-17T03:01:49;8.60;;;6.10;;
33094;SDS011;19459;53.044;8.910;2022-10-17T03:04:15;10.88;;;6.47;;
33094;SDS011;19459;53.044;8.910;2022-10-17T03:06:42;8.75;;;6.43;;
33094;SDS011;19459;53.044;8.910;2022-10-17T03:09:10;9.15;;;6.65;;
33094;SDS011;19459;53.044;8.910;2022-10-17T03:11:36;9.27;;;6.72;;
33094;SDS011;19459;53.044;8.910;2022-10-17T03:14:02;8.50;;;5.93;;
33094;SDS011;19459;53.044;8.910;2022-10-17T03:16:28;8.20;;;6.18;;
33094;SDS011;19459;53.044;8.910;2022-10-17T03:18:54;11.50;;;6.78;;
33094;SDS011;19459;53.044;8.910;2022-10-17T03:21:20;11.38;;;6.38;;
33094;SDS011;19459;53.044;8.910;2022-10-17T03:23:46;7.22;;;6.15;;
33094;SDS011;19459;53.044;8.910;2022-10-17T03:26:12;7.88;;;6.20;;
33094;SDS011;19459;53.044;8.910;2022-10-17T03:28:37;10.05;;;7.10;;
33094;SDS011;19459;53.044;8.910;2022-10-17T03:31:07;8.70;;;7.00;;
33094;SDS011;19459;53.044;8.910;2022-10-17T03:33:42;10.60;;;6.63;;
33094;SDS011;19459;53.044;8.910;2022-10-17T03:36:09;10.82;;;6.43;;
33094;SDS011;19459;53.044;8.910;2022-10-17T03:38:37;8.93;;;7.28;;
33094;SDS011;19459;53.044;8.910;2022-10-17T03:41:03;12.55;;;6.93;;
33094;SDS011;19459;53.044;8.910;2022-10-17T03:43:30;7.47;;;6.50;;
33094;SDS011;19459;53.044;8.910;2022-10-17T03:45:56;8.73;;;6.57;;
33094;SDS011;19459;53.044;8.910;2022-10-17T03:48:23;10.27;;;7.28;;
33094;SDS011;19459;53.044;8.910;2022-10-17T03:50:50;10.70;;;8.00;;
33094;SDS011;19459;53.044;8.910;2022-10-17T03:53:17;19.60;;;8.10;;
33094;SDS011;19459;53.044;8.910;2022-10-17T03:55:43;13.98;;;7.97;;
33094;SDS011;19459;53.044;8.910;2022-10-17T03:58:08;13.50;;;8.57;;
33094;SDS011;19459;53.044;8.910;2022-10-17T04:00:35;13.57;;;8.07;;
33094;SDS011;19459;53.044;8.910;2022-10-17T04:03:00;11.77;;;8.55;;
33094;SDS011;19459;53.044;8.910;2022-10-17T04:05:26;12.93;;;8.25;;
33094;SDS011;19459;53.044;8.910;2022-10-17T04:07:52;14.35;;;8.85;;
33094;SDS011;19459;53.044;8.910;2022-10-17T04:10:18;16.20;;;7.90;;
33094;SDS011;19459;53.044;8.910;2022-10-17T04:12:43;12.90;;;7.32;;
33094;SDS011;19459;53.044;8.910;2022-10-17T04:15:09;13.23;;;7.95;;
33094;SDS011;19459;53.044;8.910;2022-10-17T04:17:35;15.68;;;7.78;;
33094;SDS011;19459;53.044;8.910;2022-10-17T04:20:01;17.13;;;8.02;;
33094;SDS011;19459;53.044;8.910;2022-10-17T04:22:26;12.23;;;8.38;;
33094;SDS011;19459;53.044;8.910;2022-10-17T04:24:52;10.45;;;7.82;;
33094;SDS011;19459;53.044;8.910;2022-10-17T04:27:18;14.80;;;8.63;;
33094;SDS011;19459;53.044;8.910;2022-10-17T04:29:44;13.55;;;8.25;;
33094;SDS011;19459;53.044;8.910;2022-10-17T04:32:09;11.57;;;7.75;;
33094;SDS011;19459;53.044;8.910;2022-10-17T04:34:35;14.25;;;8.25;;
33094;SDS011;19459;53.044;8.910;2022-10-17T04:37:01;15.45;;;9.10;;
33094;SDS011;19459;53.044;8.910;2022-10-17T04:39:26;11.50;;;8.30;;
33094;SDS011;19459;53.044;8.910;2022-10-17T04:41:53;14.27;;;9.45;;
33094;SDS011;19459;53.044;8.910;2022-10-17T04:44:20;10.35;;;7.72;;
33094;SDS011;19459;53.044;8.910;2022-10-17T04:46:46;14.43;;;9.25;;
33094;SDS011;19459;53.044;8.910;2022-10-17T04:49:12;10.63;;;8.52;;
33094;SDS011;19459;53.044;8.910;2022-10-17T04:51:38;14.27;;;9.15;;
33094;SDS011;19459;53.044;8.910;2022-10-17T04:54:04;11.05;;;8.75;;
33094;SDS011;19459;53.044;8.910;2022-10-17T04:56:29;16.58;;;8.80;;
33094;SDS011;19459;53.044;8.910;2022-10-17T04:58:56;12.40;;;8.63;;
33094;SDS011;19459;53.044;8.910;2022-10-17T05:01:24;16.13;;;9.63;;
33094;SDS011;19459;53.044;8.910;2022-10-17T05:03:51;13.05;;;8.88;;
33094;SDS011;19459;53.044;8.910;2022-10-17T05:06:19;14.80;;;9.20;;
33094;SDS011;19459;53.044;8.910;2022-10-17T05:08:47;25.30;;;9.75;;
33094;SDS011;19459;53.044;8.910;2022-10-17T05:11:14;16.08;;;9.63;;
33094;SDS011;19459;53.044;8.910;2022-10-17T05:13:50;10.50;;;9.40;;
33094;SDS011;19459;53.044;8.910;2022-10-17T05:16:25;10.68;;;8.73;;
33094;SDS011;19459;53.044;8.910;2022-10-17T05:18:53;14.48;;;8.85;;
33094;SDS011;19459;53.044;8.910;2022-10-17T05:21:21;11.98;;;9.13;;
33094;SDS011;19459;53.044;8.910;2022-10-17T05:23:49;12.00;;;9.50;;
33094;SDS011;19459;53.044;8.910;2022-10-17T05:26:16;14.95;;;9.20;;
33094;SDS011;19459;53.044;8.910;2022-10-17T05:28:42;15.05;;;9.43;;
33094;SDS011;19459;53.044;8.910;2022-10-17T05:31:08;13.00;;;8.90;;
33094;SDS011;19459;53.044;8.910;2022-10-17T05:33:35;22.98;;;9.38;;
33094;SDS011;19459;53.044;8.910;2022-10-17T05:36:02;13.65;;;8.93;;
33094;SDS011;19459;53.044;8.910;2022-10-17T05:38:29;18.55;;;8.68;;
33094;SDS011;19459;53.044;8.910;2022-10-17T05:40:58;10.05;;;8.77;;
33094;SDS011;19459;53.044;8.910;2022-10-17T05:43:25;15.88;;;9.27;;
33094;SDS011;19459;53.044;8.910;2022-10-17T05:45:52;16.60;;;10.23;;
33094;SDS011;19459;53.044;8.910;2022-10-17T05:48:18;12.40;;;8.98;;
33094;SDS011;19459;53.044;8.910;2022-10-17T05:50:44;15.85;;;10.32;;
33094;SDS011;19459;53.044;8.910;2022-10-17T05:53:10;16.13;;;9.20;;
33094;SDS011;19459;53.044;8.910;2022-10-17T05:55:36;17.33;;;9.90;;
33094;SDS011;19459;53.044;8.910;2022-10-17T05:58:02;17.50;;;9.07;;
33094;SDS011;19459;53.044;8.910;2022-10-17T06:00:28;11.07;;;9.18;;
33094;SDS011;19459;53.044;8.910;2022-10-17T06:02:54;15.70;;;9.27;;
33094;SDS011;19459;53.044;8.910;2022-10-17T06:05:20;16.05;;;9.60;;
33094;SDS011;19459;53.044;8.910;2022-10-17T06:07:46;17.25;;;10.10;;
33094;SDS011;19459;53.044;8.910;2022-10-17T06:10:13;12.95;;;9.10;;
33094;SDS011;19459;53.044;8.910;2022-10-17T06:12:42;11.68;;;9.55;;
33094;SDS011;19459;53.044;8.910;2022-10-17T06:15:09;14.65;;;9.55;;
33094;SDS011;19459;53.044;8.910;2022-10-17T06:17:36;16.38;;;8.95;;
33094;SDS011;19459;53.044;8.910;2022-10-17T06:20:02;13.27;;;8.77;;
33094;SDS011;19459;53.044;8.910;2022-10-17T06:22:28;13.73;;;10.07;;
33094;SDS011;19459;53.044;8.910;2022-10-17T06:24:54;15.60;;;10.45;;
33094;SDS011;19459;53.044;8.910;2022-10-17T06:27:20;14.73;;;10.00;;
33094;SDS011;19459;53.044;8.910;2022-10-17T06:29:46;16.50;;;10.10;;
33094;SDS011;19459;53.044;8.910;2022-10-17T06:32:20;14.80;;;9.25;;
33094;SDS011;19459;53.044;8.910;2022-10-17T06:35:12;13.18;;;9.68;;
33094;SDS011;19459;53.044;8.910;2022-10-17T06:37:38;13.30;;;9.30;;
33094;SDS011;19459;53.044;8.910;2022-10-17T06:40:04;16.55;;;10.07;;
33094;SDS011;19459;53.044;8.910;2022-10-17T06:42:32;13.02;;;10.60;;
33094;SDS011;19459;53.044;8.910;2022-10-17T06:44:58;13.65;;;9.52;;
33094;SDS011;19459;53.044;8.910;2022-10-17T06:47:24;14.55;;;11.05;;
33094;SDS011;19459;53.044;8.910;2022-10-17T06:49:50;18.13;;;10.73;;
33094;SDS011;19459;53.044;8.910;2022-10-17T06:52:15;12.85;;;9.18;;
33094;SDS011;19459;53.044;8.910;2022-10-17T06:54:42;21.23;;;10.75;;
33094;SDS011;19459;53.044;8.910;2022-10-17T06:57:08;14.50;;;10.30;;
33094;SDS011;19459;53.044;8.910;2022-10-17T06:59:34;13.35;;;9.52;;
33094;SDS011;19459;53.044;8.910;2022-10-17T07:02:00;14.10;;;10.32;;
33094;SDS011;19459;53.044;8.910;2022-10-17T07:04:26;14.82;;;10.52;;
33094;SDS011;19459;53.044;8.910;2022-10-17T07:06:52;17.63;;;9.98;;
33094;SDS011;19459;53.044;8.910;2022-10-17T07:09:18;15.15;;;9.60;;
33094;SDS011;19459;53.044;8.910;2022-10-17T07:11:44;10.48;;;9.02;;
33094;SDS011;19459;53.044;8.910;2022-10-17T07:14:10;16.70;;;9.38;;
33094;SDS011;19459;53.044;8.910;2022-10-17T07:16:35;12.27;;;9.00;;
33094;SDS011;19459;53.044;8.910;2022-10-17T07:19:01;10.77;;;8.32;;
33094;SDS011;19459;53.044;8.910;2022-10-17T07:21:27;13.35;;;9.23;;
33094;SDS011;19459;53.044;8.910;2022-10-17T07:23:53;11.90;;;9.00;;
33094;SDS011;19459;53.044;8.910;2022-10-17T07:26:19;12.40;;;8.38;;
33094;SDS011;19459;53.044;8.910;2022-10-17T07:28:45;15.50;;;8.80;;
33094;SDS011;19459;53.044;8.910;2022-10-17T07:31:18;11.32;;;8.00;;
33094;SDS011;19459;53.044;8.910;2022-10-17T07:33:45;13.32;;;8.20;;
33094;SDS011;19459;53.044;8.910;2022-10-17T07:36:11;11.25;;;8.10;;
33094;SDS011;19459;53.044;8.910;2022-10-17T07:38:37;12.20;;;8.68;;
33094;SDS011;19459;53.044;8.910;2022-10-17T07:41:04;9.02;;;7.35;;
33094;SDS011;19459;53.044;8.910;2022-10-17T07:43:32;14.88;;;8.20;;
33094;SDS011;19459;53.044;8.910;2022-10-17T07:46:00;17.75;;;8.13;;
33094;SDS011;19459;53.044;8.910;2022-10-17T07:48:26;9.20;;;7.40;;
33094;SDS011;19459;53.044;8.910;2022-10-17T07:50:52;11.82;;;7.50;;
33094;SDS011;19459;53.044;8.910;2022-10-17T07:53:18;11.38;;;6.85;;
33094;SDS011;19459;53.044;8.910;2022-10-17T07:55:44;12.18;;;7.85;;
33094;SDS011;19459;53.044;8.910;2022-10-17T07:58:12;9.25;;;7.15;;
33094;SDS011;19459;53.044;8.910;2022-10-17T08:00:38;8.73;;;7.38;;
33094;SDS011;19459;53.044;8.910;2022-10-17T08:03:04;10.02;;;7.53;;
33094;SDS011;19459;53.044;8.910;2022-10-17T08:05:31;10.20;;;6.78;;
33094;SDS011;19459;53.044;8.910;2022-10-17T08:07:57;9.60;;;7.65;;
33094;SDS011;19459;53.044;8.910;2022-10-17T08:10:23;8.52;;;6.43;;
33094;SDS011;19459;53.044;8.910;2022-10-17T08:12:54;10.15;;;7.55;;
33094;SDS011;19459;53.044;8.910;2022-10-17T08:15:21;15.88;;;7.57;;
33094;SDS011;19459;53.044;8.910;2022-10-17T08:17:48;12.15;;;7.90;;
33094;SDS011;19459;53.044;8.910;2022-10-17T08:20:14;17.55;;;7.47;;
33094;SDS011;19459;53.044;8.910;2022-10-17T08:22:40;11.52;;;6.78;;
33094;SDS011;19459;53.044;8.910;2022-10-17T08:25:06;12.30;;;7.05;;
33094;SDS011;19459;53.044;8.910;2022-10-17T08:27:33;12.07;;;7.15;;
33094;SDS011;19459;53.044;8.910;2022-10-17T08:29:59;11.80;;;7.05;;
33094;SDS011;19459;53.044;8.910;2022-10-17T08:32:26;14.02;;;7.32;;
33094;SDS011;19459;53.044;8.910;2022-10-17T08:34:53;8.07;;;5.95;;
33094;SDS011;19459;53.044;8.910;2022-10-17T08:37:20;9.32;;;5.35;;
33094;SDS011;19459;53.044;8.910;2022-10-17T08:39:47;11.35;;;6.53;;
33094;SDS011;19459;53.044;8.910;2022-10-17T08:47:53;8.25;;;6.55;;
33094;SDS011;19459;53.044;8.910;2022-10-17T08:50:34;9.82;;;5.82;;
33094;SDS011;19459;53.044;8.910;2022-10-17T08:53:32;8.23;;;5.75;;
33094;SDS011;19459;53.044;8.910;2022-10-17T08:56:18;10.27;;;5.60;;
33094;SDS011;19459;53.044;8.910;2022-10-17T08:58:49;14.73;;;6.80;;
33094;SDS011;19459;53.044;8.910;2022-10-17T09:09:54;11.05;;;5.28;;
33094;SDS011;19459;53.044;8.910;2022-10-17T09:12:31;9.52;;;5.00;;
33094;SDS011;19459;53.044;8.910;2022-10-17T09:15:30;10.85;;;5.68;;
33094;SDS011;19459;53.044;8.910;2022-10-17T09:18:28;9.13;;;6.03;;
33094;SDS011;19459;53.044;8.910;2022-10-17T09:21:13;9.00;;;5.53;;
33094;SDS011;19459;53.044;8.910;2022-10-17T09:23:48;7.60;;;5.07;;
33094;SDS011;19459;53.044;8.910;2022-10-17T09:26:19;9.27;;;5.28;;
33094;SDS011;19459;53.044;8.910;2022-10-17T09:28:50;7.35;;;5.05;;
33094;SDS011;19459;53.044;8.910;2022-10-17T09:34:07;5.63;;;4.53;;
33094;SDS011;19459;53.044;8.910;2022-10-17T09:36:36;10.02;;;5.22;;
33094;SDS011;19459;53.044;8.910;2022-10-17T09:39:14;7.70;;;4.50;;
33094;SDS011;19459;53.044;8.910;2022-10-17T09:41:47;10.00;;;5.03;;
33094;SDS011;19459;53.044;8.910;2022-10-17T09:44:22;10.38;;;5.13;;
33094;SDS011;19459;53.044;8.910;2022-10-17T09:49:44;10.48;;;5.18;;
33094;SDS011;19459;53.044;8.910;2022-10-17T09:52:16;5.80;;;4.22;;
33094;SDS011;19459;53.044;8.910;2022-10-17T09:55:00;9.35;;;4.40;;
33094;SDS011;19459;53.044;8.910;2022-10-17T09:57:59;9.13;;;5.65;;
33094;SDS011;19459;53.044;8.910;2022-10-17T10:00:28;9.45;;;4.53;;
33094;SDS011;19459;53.044;8.910;2022-10-17T10:03:19;10.02;;;4.57;;
33094;SDS011;19459;53.044;8.910;2022-10-17T10:06:02;8.05;;;4.07;;
33094;SDS011;19459;53.044;8.910;2022-10-17T10:08:32;7.70;;;4.90;;
33094;SDS011;19459;53.044;8.910;2022-10-17T10:11:16;8.48;;;4.15;;
33094;SDS011;19459;53.044;8.910;2022-10-17T10:13:44;9.40;;;4.05;;
33094;SDS011;19459;53.044;8.910;2022-10-17T10:18:48;10.02;;;4.20;;
33094;SDS011;19459;53.044;8.910;2022-10-17T10:26:51;8.30;;;4.32;;
33094;SDS011;19459;53.044;8.910;2022-10-17T10:31:58;9.02;;;4.65;;
33094;SDS011;19459;53.044;8.910;2022-10-17T10:34:55;8.43;;;4.05;;
33094;SDS011;19459;53.044;8.910;2022-10-17T10:37:44;10.15;;;4.82;;
33094;SDS011;19459;53.044;8.910;2022-10-17T10:43:30;6.35;;;4.03;;
33094;SDS011;19459;53.044;8.910;2022-10-17T10:46:00;12.07;;;4.82;;
33094;SDS011;19459;53.044;8.910;2022-10-17T10:48:33;7.40;;;4.00;;
33094;SDS011;19459;53.044;8.910;2022-10-17T10:51:09;9.90;;;4.60;;
33094;SDS011;19459;53.044;8.910;2022-10-17T10:56:39;7.97;;;4.50;;
33094;SDS011;19459;53.044;8.910;2022-10-17T11:01:51;6.07;;;4.57;;
33094;SDS011;19459;53.044;8.910;2022-10-17T11:04:26;8.18;;;4.25;;
33094;SDS011;19459;53.044;8.910;2022-10-17T11:07:04;8.85;;;4.80;;
33094;SDS011;19459;53.044;8.910;2022-10-17T11:13:03;7.18;;;4.05;;
33094;SDS011;19459;53.044;8.910;2022-10-17T11:18:50;7.35;;;4.55;;
33094;SDS011;19459;53.044;8.910;2022-10-17T11:24:49;8.77;;;5.40;;
33094;SDS011;19459;53.044;8.910;2022-10-17T11:27:23;10.95;;;4.85;;
33094;SDS011;19459;53.044;8.910;2022-10-17T11:29:52;11.63;;;6.22;;
33094;SDS011;19459;53.044;8.910;2022-10-17T11:35:29;7.88;;;6.22;;
33094;SDS011;19459;53.044;8.910;2022-10-17T11:41:18;12.73;;;6.55;;
33094;SDS011;19459;53.044;8.910;2022-10-17T11:46:59;12.10;;;5.93;;
33094;SDS011;19459;53.044;8.910;2022-10-17T11:53:07;6.47;;;5.80;;
33094;SDS011;19459;53.044;8.910;2022-10-17T11:55:38;13.35;;;6.35;;
33094;SDS011;19459;53.044;8.910;2022-10-17T12:01:34;9.80;;;5.97;;
33094;SDS011;19459;53.044;8.910;2022-10-17T12:04:15;10.23;;;6.70;;
33094;SDS011;19459;53.044;8.910;2022-10-17T12:09:57;12.50;;;7.68;;
33094;SDS011;19459;53.044;8.910;2022-10-17T12:12:31;15.65;;;7.22;;
33094;SDS011;19459;53.044;8.910;2022-10-17T12:17:38;21.80;;;8.40;;
33094;SDS011;19459;53.044;8.910;2022-10-17T12:22:52;19.42;;;11.32;;
33094;SDS011;19459;53.044;8.910;2022-10-17T12:25:29;22.45;;;11.85;;
33094;SDS011;19459;53.044;8.910;2022-10-17T12:28:02;20.90;;;12.38;;
33094;SDS011;19459;53.044;8.910;2022-10-17T12:33:21;17.35;;;11.75;;
33094;SDS011;19459;53.044;8.910;2022-10-17T12:38:41;23.05;;;14.02;;
33094;SDS011;19459;53.044;8.910;2022-10-17T12:41:08;19.58;;;13.40;;
33094;SDS011;19459;53.044;8.910;2022-10-17T12:43:35;22.42;;;13.63;;
33094;SDS011;19459;53.044;8.910;2022-10-17T12:46:40;22.40;;;12.90;;
33094;SDS011;19459;53.044;8.910;2022-10-17T12:55:15;23.52;;;16.15;;
33094;SDS011;19459;53.044;8.910;2022-10-17T12:57:46;18.60;;;14.27;;
33094;SDS011;19459;53.044;8.910;2022-10-17T13:03:25;23.58;;;15.77;;
33094;SDS011;19459;53.044;8.910;2022-10-17T13:05:56;20.67;;;15.65;;
33094;SDS011;19459;53.044;8.910;2022-10-17T13:08:27;28.95;;;16.13;;
33094;SDS011;19459;53.044;8.910;2022-10-17T13:10:58;23.55;;;17.35;;
33094;SDS011;19459;53.044;8.910;2022-10-17T13:13:47;23.95;;;16.92;;
33094;SDS011;19459;53.044;8.910;2022-10-17T13:16:30;26.00;;;16.70;;
33094;SDS011;19459;53.044;8.910;2022-10-17T13:19:16;23.65;;;16.90;;
33094;SDS011;19459;53.044;8.910;2022-10-17T13:24:38;23.52;;;16.45;;
33094;SDS011;19459;53.044;8.910;2022-10-17T13:27:18;25.90;;;18.63;;
33094;SDS011;19459;53.044;8.910;2022-10-17T13:29:53;29.15;;;18.17;;
33094;SDS011;19459;53.044;8.910;2022-10-17T13:32:21;26.42;;;17.73;;
33094;SDS011;19459;53.044;8.910;2022-10-17T13:35:05;25.90;;;19.52;;
33094;SDS011;19459;53.044;8.910;2022-10-17T13:37:41;25.50;;;19.00;;
33094;SDS011;19459;53.044;8.910;2022-10-17T13:40:20;29.08;;;18.83;;
33094;SDS011;19459;53.044;8.910;2022-10-17T13:42:52;28.85;;;19.75;;
33094;SDS011;19459;53.044;8.910;2022-10-17T13:45:26;34.97;;;22.80;;
33094;SDS011;19459;53.044;8.910;2022-10-17T13:47:54;28.88;;;21.58;;
33094;SDS011;19459;53.044;8.910;2022-10-17T13:56:05;35.90;;;20.42;;
33094;SDS011;19459;53.044;8.910;2022-10-17T13:58:42;29.80;;;20.33;;
33094;SDS011;19459;53.044;8.910;2022-10-17T14:01:13;30.75;;;20.65;;
33094;SDS011;19459;53.044;8.910;2022-10-17T14:03:41;32.33;;;21.02;;
33094;SDS011;19459;53.044;8.910;2022-10-17T14:06:13;30.05;;;20.70;;
33094;SDS011;19459;53.044;8.910;2022-10-17T14:11:40;29.48;;;20.67;;
33094;SDS011;19459;53.044;8.910;2022-10-17T14:14:16;28.35;;;20.95;;
33094;SDS011;19459;53.044;8.910;2022-10-17T14:16:45;28.73;;;20.88;;
33094;SDS011;19459;53.044;8.910;2022-10-17T14:19:30;37.70;;;20.85;;
33094;SDS011;19459;53.044;8.910;2022-10-17T14:24:46;26.45;;;19.92;;
33094;SDS011;19459;53.044;8.910;2022-10-17T14:27:28;25.10;;;18.45;;
33094;SDS011;19459;53.044;8.910;2022-10-17T14:29:54;33.80;;;18.55;;
33094;SDS011;19459;53.044;8.910;2022-10-17T14:32:25;29.67;;;18.85;;
33094;SDS011;19459;53.044;8.910;2022-10-17T14:34:56;21.58;;;16.77;;
33094;SDS011;19459;53.044;8.910;2022-10-17T14:40:13;24.40;;;17.40;;
33094;SDS011;19459;53.044;8.910;2022-10-17T14:42:45;27.95;;;17.90;;
33094;SDS011;19459;53.044;8.910;2022-10-17T14:45:21;23.63;;;18.10;;
33094;SDS011;19459;53.044;8.910;2022-10-17T14:47:52;26.17;;;18.13;;
33094;SDS011;19459;53.044;8.910;2022-10-17T14:50:25;25.98;;;17.25;;
33094;SDS011;19459;53.044;8.910;2022-10-17T14:53:04;24.73;;;18.27;;
33094;SDS011;19459;53.044;8.910;2022-10-17T14:55:58;25.17;;;17.48;;
33094;SDS011;19459;53.044;8.910;2022-10-17T14:58:33;25.50;;;16.58;;
33094;SDS011;19459;53.044;8.910;2022-10-17T15:00:59;26.20;;;16.15;;
33094;SDS011;19459;53.044;8.910;2022-10-17T15:03:26;19.67;;;15.63;;
33094;SDS011;19459;53.044;8.910;2022-10-17T15:05:53;22.92;;;17.55;;
33094;SDS011;19459;53.044;8.910;2022-10-17T15:08:20;20.20;;;15.18;;
33094;SDS011;19459;53.044;8.910;2022-10-17T15:10:48;34.40;;;17.80;;
33094;SDS011;19459;53.044;8.910;2022-10-17T15:13:15;19.48;;;16.70;;
33094;SDS011;19459;53.044;8.910;2022-10-17T15:15:41;22.45;;;16.63;;
33094;SDS011;19459;53.044;8.910;2022-10-17T15:18:09;21.02;;;15.55;;
33094;SDS011;19459;53.044;8.910;2022-10-17T15:20:36;23.63;;;17.08;;
33094;SDS011;19459;53.044;8.910;2022-10-17T15:23:03;31.83;;;19.75;;
33094;SDS011;19459;53.044;8.910;2022-10-17T15:25:29;22.17;;;17.00;;
33094;SDS011;19459;53.044;8.910;2022-10-17T15:27:56;24.45;;;18.70;;
33094;SDS011;19459;53.044;8.910;2022-10-17T15:30:30;29.02;;;19.63;;
33094;SDS011;19459;53.044;8.910;2022-10-17T15:32:59;24.95;;;17.73;;
33094;SDS011;19459;53.044;8.910;2022-10-17T15:35:25;32.92;;;19.58;;
33094;SDS011;19459;53.044;8.910;2022-10-17T15:37:52;30.27;;;19.67;;
33094;SDS011;19459;53.044;8.910;2022-10-17T15:40:19;30.17;;;20.30;;
33094;SDS011;19459;53.044;8.910;2022-10-17T15:42:48;35.30;;;24.40;;
33094;SDS011;19459;53.044;8.910;2022-10-17T15:45:15;31.77;;;22.08;;
33094;SDS011;19459;53.044;8.910;2022-10-17T15:47:48;28.67;;;19.58;;
33094;SDS011;19459;53.044;8.910;2022-10-17T15:50:17;27.15;;;19.88;;
33094;SDS011;19459;53.044;8.910;2022-10-17T15:52:43;27.90;;;17.13;;
33094;SDS011;19459;53.044;8.910;2022-10-17T15:55:11;25.45;;;16.98;;
33094;SDS011;19459;53.044;8.910;2022-10-17T15:57:37;23.25;;;16.85;;
33094;SDS011;19459;53.044;8.910;2022-10-17T16:00:07;25.13;;;16.67;;
33094;SDS011;19459;53.044;8.910;2022-10-17T16:02:42;22.77;;;16.17;;
33094;SDS011;19459;53.044;8.910;2022-10-17T16:05:13;25.77;;;16.65;;
33094;SDS011;19459;53.044;8.910;2022-10-17T16:07:44;22.48;;;16.13;;
33094;SDS011;19459;53.044;8.910;2022-10-17T16:10:11;22.58;;;16.13;;
33094;SDS011;19459;53.044;8.910;2022-10-17T16:12:38;23.30;;;17.15;;
33094;SDS011;19459;53.044;8.910;2022-10-17T16:15:16;23.02;;;17.45;;
33094;SDS011;19459;53.044;8.910;2022-10-17T16:17:46;23.08;;;16.15;;
33094;SDS011;19459;53.044;8.910;2022-10-17T16:20:13;38.78;;;16.02;;
33094;SDS011;19459;53.044;8.910;2022-10-17T16:22:40;28.70;;;16.35;;
33094;SDS011;19459;53.044;8.910;2022-10-17T16:25:29;28.77;;;16.13;;
33094;SDS011;19459;53.044;8.910;2022-10-17T16:27:56;25.98;;;15.85;;
33094;SDS011;19459;53.044;8.910;2022-10-17T16:30:24;23.90;;;16.23;;
33094;SDS011;19459;53.044;8.910;2022-10-17T16:32:52;29.75;;;18.20;;
33094;SDS011;19459;53.044;8.910;2022-10-17T16:35:26;25.05;;;17.45;;
33094;SDS011;19459;53.044;8.910;2022-10-17T16:37:54;28.25;;;17.63;;
33094;SDS011;19459;53.044;8.910;2022-10-17T16:40:21;27.45;;;18.15;;
33094;SDS011;19459;53.044;8.910;2022-10-17T16:42:47;25.13;;;17.38;;
33094;SDS011;19459;53.044;8.910;2022-10-17T16:45:17;22.75;;;17.85;;
33094;SDS011;19459;53.044;8.910;2022-10-17T16:47:46;24.95;;;18.08;;
33094;SDS011;19459;53.044;8.910;2022-10-17T16:50:12;28.83;;;18.50;;
33094;SDS011;19459;53.044;8.910;2022-10-17T16:52:38;24.55;;;18.73;;
33094;SDS011;19459;53.044;8.910;2022-10-17T16:55:05;37.75;;;21.17;;
33094;SDS011;19459;53.044;8.910;2022-10-17T16:57:31;29.95;;;20.25;;
33094;SDS011;19459;53.044;8.910;2022-10-17T16:59:57;29.02;;;19.27;;
33094;SDS011;19459;53.044;8.910;2022-10-17T17:02:23;30.65;;;21.95;;
33094;SDS011;19459;53.044;8.910;2022-10-17T17:04:49;36.33;;;20.50;;
33094;SDS011;19459;53.044;8.910;2022-10-17T17:07:15;29.10;;;20.50;;
33094;SDS011;19459;53.044;8.910;2022-10-17T17:09:43;37.05;;;22.38;;
33094;SDS011;19459;53.044;8.910;2022-10-17T17:12:08;34.67;;;23.40;;
33094;SDS011;19459;53.044;8.910;2022-10-17T17:14:34;28.30;;;21.40;;
33094;SDS011;19459;53.044;8.910;2022-10-17T17:17:00;34.33;;;23.48;;
33094;SDS011;19459;53.044;8.910;2022-10-17T17:19:26;40.40;;;23.08;;